Onsted, Michigan
Current Conditions -  °F | °C
As of 5:53 PM on Wednesday 17 Dec 2014 (Local Time) from KADG Reporting Station
Overcast Overcast  
Wind Chill: 18°   Ceiling: 2300
Heat Index: 29°   Visibility: 10mi
Dew Point: 20°   Wind: 14mph
Humidity: 69%   Direction: 310°NW
Pressure: 30.15"   Gusts: 22mph
Location:  42.01°N, 84.19°W
Report Text: KADG 172253Z AUTO 31012G19KT 10SM OVC023 M02/M07 A3015 RMK AO2 SLP220 T10171067
Loading
Personal Weather Stations






























Interactive Weather Map New forecast layout! Learn more

10-Day Weather Forecast

Advertisements
Track Severe Weather on mobile